createdAt,value
2023-05-09T00:00:35.633Z,58.40
2023-05-09T00:01:35.627Z,54.18
2023-05-09T00:02:35.765Z,61.30
2023-05-09T00:03:35.624Z,54.94
2023-05-09T00:04:35.732Z,59.57
2023-05-09T00:05:35.652Z,61.17
2023-05-09T00:06:35.594Z,57.23
2023-05-09T00:07:36.589Z,54.61
2023-05-09T00:08:35.602Z,57.65
2023-05-09T00:09:35.587Z,60.80
2023-05-09T00:10:35.578Z,68.23
2023-05-09T00:11:35.566Z,63.38
2023-05-09T00:12:35.569Z,59.13
2023-05-09T00:13:35.557Z,54.00
2023-05-09T00:14:35.584Z,64.18
2023-05-09T00:15:35.549Z,58.72
2023-05-09T00:16:35.558Z,54.13
2023-05-09T00:17:35.554Z,60.54
2023-05-09T00:18:35.526Z,58.85
2023-05-09T00:19:35.570Z,56.99
2023-05-09T00:20:35.624Z,53.60
2023-05-09T00:21:35.514Z,57.95
2023-05-09T00:22:35.507Z,53.22
2023-05-09T00:23:35.574Z,58.25
2023-05-09T00:24:35.526Z,62.14
2023-05-09T00:25:35.526Z,69.68
2023-05-09T00:26:35.552Z,65.30
2023-05-09T00:27:35.461Z,54.11
2023-05-09T00:28:35.485Z,59.32
2023-05-09T00:29:35.496Z,62.32
2023-05-09T00:30:35.470Z,58.51
2023-05-09T00:31:35.480Z,61.46
2023-05-09T00:32:36.451Z,60.07
2023-05-09T00:33:35.443Z,60.61
2023-05-09T00:34:35.460Z,53.99
2023-05-09T00:35:35.407Z,64.67
2023-05-09T00:36:35.591Z,61.02
2023-05-09T00:37:35.452Z,58.12
2023-05-09T00:38:35.385Z,57.41
2023-05-09T00:39:35.376Z,60.24
2023-05-09T00:40:35.416Z,63.69
2023-05-09T00:41:35.367Z,60.65
2023-05-09T00:42:35.384Z,54.61
2023-05-09T00:43:35.349Z,59.41
2023-05-09T00:44:35.350Z,56.23
2023-05-09T00:45:35.375Z,60.55
2023-05-09T00:46:35.414Z,56.06
2023-05-09T00:47:35.381Z,56.21
2023-05-09T00:48:35.338Z,62.80
2023-05-09T00:49:35.336Z,61.63
2023-05-09T00:50:35.326Z,58.76
2023-05-09T00:51:35.311Z,64.04
2023-05-09T00:52:35.414Z,64.93
2023-05-09T00:53:35.314Z,65.15
2023-05-09T00:54:35.283Z,54.75
2023-05-09T00:55:35.288Z,61.21
2023-05-09T00:56:35.285Z,65.42
2023-05-09T00:57:35.266Z,56.74
2023-05-09T00:58:35.263Z,64.09
2023-05-09T00:59:35.268Z,54.05
2023-05-09T01:00:35.250Z,54.30
2023-05-09T01:01:35.306Z,58.42
2023-05-09T01:02:36.317Z,68.00
2023-05-09T01:03:35.403Z,60.10
2023-05-09T01:04:35.261Z,62.24
2023-05-09T01:05:35.212Z,60.92
2023-05-09T01:06:35.219Z,70.08
2023-05-09T01:07:35.191Z,55.08
2023-05-09T01:08:35.301Z,64.10
2023-05-09T01:09:35.189Z,63.94
2023-05-09T01:10:35.182Z,61.03
2023-05-09T01:11:35.191Z,54.91
2023-05-09T01:12:35.359Z,54.66
2023-05-09T01:13:35.176Z,63.52
2023-05-09T01:14:35.169Z,55.03
2023-05-09T01:15:35.172Z,66.27
2023-05-09T01:16:35.158Z,55.93
2023-05-09T01:17:35.223Z,56.49
2023-05-09T01:18:35.147Z,54.66
2023-05-09T01:19:35.151Z,54.63
2023-05-09T01:20:35.121Z,59.64
2023-05-09T01:21:35.118Z,58.01
2023-05-09T01:22:35.134Z,66.48
2023-05-09T01:23:35.107Z,66.32
2023-05-09T01:24:35.235Z,61.27
2023-05-09T01:25:35.127Z,57.57
2023-05-09T01:26:35.083Z,57.11
2023-05-09T01:27:35.107Z,59.54
2023-05-09T01:28:35.071Z,61.57
2023-05-09T01:29:35.071Z,56.50
2023-05-09T01:30:35.108Z,65.16
2023-05-09T01:31:35.063Z,60.98
2023-05-09T01:32:35.093Z,61.25
2023-05-09T01:33:35.031Z,59.51
2023-05-09T01:34:35.042Z,60.04
2023-05-09T01:35:35.037Z,59.80
2023-05-09T01:36:35.031Z,57.64
2023-05-09T01:37:35.033Z,57.74
2023-05-09T01:38:34.988Z,67.02
2023-05-09T01:39:36.019Z,64.77
2023-05-09T01:40:35.078Z,56.94
2023-05-09T01:41:34.976Z,61.24
2023-05-09T01:42:34.977Z,64.26
2023-05-09T01:43:35.003Z,59.26
2023-05-09T01:44:34.958Z,58.91
2023-05-09T01:45:34.958Z,60.65
2023-05-09T01:46:34.997Z,61.02
2023-05-09T01:47:34.977Z,60.41
2023-05-09T01:48:34.932Z,60.16
2023-05-09T01:49:34.922Z,56.58
2023-05-09T01:50:34.964Z,64.69
2023-05-09T01:51:34.926Z,66.23
2023-05-09T01:52:34.909Z,60.07
2023-05-09T01:53:34.917Z,57.17
2023-05-09T01:54:34.873Z,65.95
2023-05-09T01:55:34.927Z,58.75
2023-05-09T01:56:34.961Z,55.66
2023-05-09T01:57:34.875Z,65.92
2023-05-09T01:58:34.845Z,60.14
2023-05-09T01:59:34.837Z,59.99
2023-05-09T02:00:34.897Z,55.40
2023-05-09T02:01:34.886Z,65.67
2023-05-09T02:02:34.907Z,60.24
2023-05-09T02:03:34.830Z,62.06
2023-05-09T02:04:34.833Z,64.34
2023-05-09T02:05:34.832Z,63.58
2023-05-09T02:06:34.828Z,60.98
2023-05-09T02:07:34.796Z,59.34
2023-05-09T02:08:34.829Z,55.93
2023-05-09T02:09:35.771Z,61.91
2023-05-09T02:10:34.776Z,56.75
2023-05-09T02:11:34.770Z,60.13
2023-05-09T02:12:34.853Z,60.28
2023-05-09T02:13:34.740Z,59.65
2023-05-09T02:14:34.751Z,59.32
2023-05-09T02:15:34.779Z,61.88
2023-05-09T02:16:34.765Z,55.80
2023-05-09T02:17:34.772Z,55.29
2023-05-09T02:18:34.738Z,61.87
2023-05-09T02:19:34.706Z,58.11
2023-05-09T02:20:34.715Z,60.62
2023-05-09T02:21:34.703Z,61.30
2023-05-09T02:22:34.710Z,61.86
2023-05-09T02:23:34.678Z,57.61
2023-05-09T02:24:34.668Z,63.34
2023-05-09T02:25:34.673Z,67.84
2023-05-09T02:26:34.688Z,60.36
2023-05-09T02:27:35.288Z,58.38
2023-05-09T02:28:34.752Z,67.39
2023-05-09T02:29:34.670Z,62.64
2023-05-09T02:30:34.628Z,58.20
2023-05-09T02:31:34.686Z,55.58
2023-05-09T02:32:34.814Z,63.82
2023-05-09T02:33:34.635Z,69.44
2023-05-09T02:34:34.613Z,59.92
2023-05-09T02:35:34.597Z,60.67
2023-05-09T02:36:35.721Z,66.17
2023-05-09T02:37:34.646Z,61.65
2023-05-09T02:38:34.700Z,60.56
2023-05-09T02:39:34.575Z,66.94
2023-05-09T02:40:34.571Z,70.25
2023-05-09T02:41:34.601Z,56.99
2023-05-09T02:42:34.554Z,65.86
2023-05-09T02:43:34.747Z,66.69
2023-05-09T02:44:34.633Z,61.07
2023-05-09T02:45:34.532Z,57.60
2023-05-09T02:46:34.570Z,62.89
2023-05-09T02:47:34.594Z,60.23
2023-05-09T02:48:34.545Z,59.80
2023-05-09T02:49:34.511Z,66.05
2023-05-09T02:50:34.505Z,68.08
2023-05-09T02:51:34.510Z,64.66
2023-05-09T02:52:34.553Z,58.17
2023-05-09T02:53:34.472Z,58.12
2023-05-09T02:54:34.473Z,70.48
2023-05-09T02:55:34.505Z,63.02
2023-05-09T02:56:34.457Z,64.61
2023-05-09T02:57:34.464Z,59.03
2023-05-09T02:58:34.778Z,59.69
2023-05-09T02:59:34.459Z,68.24
2023-05-09T03:00:34.520Z,58.61
2023-05-09T03:01:34.511Z,69.42
2023-05-09T03:02:34.581Z,68.29
2023-05-09T03:03:34.821Z,66.80
2023-05-09T03:04:34.428Z,59.98
2023-05-09T03:05:34.420Z,65.72
2023-05-09T03:06:34.414Z,66.03
2023-05-09T03:07:34.404Z,60.37
2023-05-09T03:08:34.594Z,67.97
2023-05-09T03:09:34.414Z,68.57
2023-05-09T03:10:34.417Z,63.60
2023-05-09T03:11:34.354Z,73.70
2023-05-09T03:12:34.360Z,69.46
2023-05-09T03:13:34.615Z,59.33
2023-05-09T03:14:34.362Z,67.90
2023-05-09T03:15:34.379Z,68.28
2023-05-09T03:16:34.448Z,65.75
2023-05-09T03:17:34.333Z,65.54
2023-05-09T03:18:34.347Z,66.63
2023-05-09T03:19:34.316Z,69.19
2023-05-09T03:20:34.295Z,70.36
2023-05-09T03:21:34.311Z,64.75
2023-05-09T03:22:34.332Z,70.43
2023-05-09T03:23:34.340Z,68.88
2023-05-09T03:24:34.267Z,68.39
2023-05-09T03:25:34.275Z,66.99
2023-05-09T03:26:34.298Z,65.89
2023-05-09T03:27:34.298Z,66.62
2023-05-09T03:28:34.256Z,69.38
2023-05-09T03:29:34.281Z,66.19
2023-05-09T03:30:34.264Z,67.12
2023-05-09T03:31:34.303Z,65.93
2023-05-09T03:32:34.399Z,70.76
2023-05-09T03:33:34.232Z,72.74
2023-05-09T03:34:34.211Z,70.19
2023-05-09T03:35:34.246Z,69.83
2023-05-09T03:36:34.207Z,67.45
2023-05-09T03:37:34.199Z,71.60
2023-05-09T03:38:34.202Z,69.98
2023-05-09T03:39:34.189Z,73.27
2023-05-09T03:40:34.184Z,70.03
2023-05-09T03:41:34.175Z,73.78
2023-05-09T03:42:34.171Z,72.42
2023-05-09T03:43:34.155Z,71.32
2023-05-09T03:44:34.141Z,71.77
2023-05-09T03:45:34.133Z,70.23
2023-05-09T03:46:34.204Z,77.50
2023-05-09T03:47:35.145Z,72.47
2023-05-09T03:48:34.207Z,64.32
2023-05-09T03:49:34.119Z,75.04
2023-05-09T03:50:34.092Z,72.02
2023-05-09T03:51:34.157Z,72.88
2023-05-09T03:52:34.099Z,70.28
2023-05-09T03:53:34.097Z,74.26
2023-05-09T03:54:34.085Z,73.31
2023-05-09T03:55:34.080Z,72.71
2023-05-09T03:56:34.083Z,70.51
2023-05-09T03:57:34.055Z,72.21
2023-05-09T03:58:34.069Z,72.37
2023-05-09T03:59:34.708Z,71.76
2023-05-09T04:00:34.058Z,65.73
2023-05-09T04:02:06.511Z,73.81
2023-05-09T04:02:34.175Z,66.45
2023-05-09T04:03:34.134Z,70.04
2023-05-09T04:04:34.125Z,74.04
2023-05-09T04:05:34.006Z,68.93
2023-05-09T04:06:33.978Z,73.68
2023-05-09T04:07:35.059Z,66.93
2023-05-09T04:08:33.980Z,68.41
2023-05-09T04:09:33.978Z,71.49
2023-05-09T04:10:33.998Z,69.39
2023-05-09T04:11:33.965Z,72.08
2023-05-09T04:12:34.006Z,71.86
2023-05-09T04:13:33.962Z,73.97
2023-05-09T04:14:33.939Z,72.67
2023-05-09T04:15:33.963Z,70.41
2023-05-09T04:16:33.957Z,68.53
2023-05-09T04:17:33.979Z,74.71
2023-05-09T04:18:33.958Z,69.25
2023-05-09T04:19:33.938Z,73.01
2023-05-09T04:20:34.010Z,74.52
2023-05-09T04:21:34.011Z,71.91
2023-05-09T04:22:33.950Z,73.58
2023-05-09T04:23:33.973Z,71.92
2023-05-09T04:24:33.928Z,74.70
2023-05-09T04:25:33.894Z,71.05
2023-05-09T04:26:33.875Z,75.25
2023-05-09T04:27:33.915Z,74.28
2023-05-09T04:28:33.947Z,72.62
2023-05-09T04:29:34.975Z,70.36
2023-05-09T04:30:33.881Z,73.09
2023-05-09T04:31:33.924Z,75.51
2023-05-09T04:32:33.932Z,76.69
2023-05-09T04:33:34.158Z,73.53
2023-05-09T04:34:33.857Z,76.27
2023-05-09T04:35:33.835Z,70.93
2023-05-09T04:36:33.997Z,72.26
2023-05-09T04:37:33.834Z,74.88
2023-05-09T04:38:33.803Z,72.85
2023-05-09T04:39:33.824Z,71.56
2023-05-09T04:40:33.804Z,73.42
2023-05-09T04:41:33.797Z,72.98
2023-05-09T04:42:33.800Z,71.73
2023-05-09T04:43:33.777Z,74.65
2023-05-09T04:44:33.763Z,74.95
2023-05-09T04:45:33.788Z,74.48
2023-05-09T04:46:33.802Z,76.06
2023-05-09T04:47:33.803Z,71.06
2023-05-09T04:48:33.885Z,70.69
2023-05-09T04:49:33.731Z,70.62
2023-05-09T04:50:33.730Z,73.34
2023-05-09T04:51:33.714Z,74.83
2023-05-09T04:52:33.924Z,74.16
2023-05-09T04:53:33.751Z,73.52
2023-05-09T04:54:33.723Z,72.83
2023-05-09T04:55:33.710Z,72.41
2023-05-09T04:56:33.714Z,71.42
2023-05-09T04:57:33.804Z,71.51
2023-05-09T04:58:33.740Z,73.35
2023-05-09T04:59:33.730Z,71.77
2023-05-09T05:00:33.646Z,72.68
2023-05-09T05:01:33.675Z,72.62
2023-05-09T05:02:33.686Z,75.09
2023-05-09T05:03:33.708Z,73.90
2023-05-09T05:04:33.725Z,72.81
2023-05-09T05:05:35.258Z,73.23
2023-05-09T05:06:35.388Z,73.83
2023-05-09T05:07:33.628Z,75.68
2023-05-09T05:08:33.754Z,76.80
2023-05-09T05:09:33.607Z,78.95
2023-05-09T05:10:33.646Z,76.08
2023-05-09T05:11:33.620Z,74.22
2023-05-09T05:12:33.609Z,75.12
2023-05-09T05:13:33.601Z,74.68
2023-05-09T05:14:33.597Z,71.80
2023-05-09T05:15:33.564Z,73.80
2023-05-09T05:16:33.645Z,75.93
2023-05-09T05:17:33.589Z,72.89
2023-05-09T05:18:33.551Z,73.00
2023-05-09T05:19:33.527Z,72.53
2023-05-09T05:20:33.540Z,70.76
2023-05-09T05:21:33.539Z,74.83
2023-05-09T05:22:33.525Z,77.15
2023-05-09T05:24:06.854Z,73.54
2023-05-09T05:25:06.015Z,73.28
2023-05-09T05:26:06.010Z,71.33
2023-05-09T05:27:07.206Z,73.87
2023-05-09T05:28:06.107Z,72.92
2023-05-09T05:28:33.523Z,73.43
2023-05-09T05:30:06.954Z,72.00
2023-05-09T05:30:34.525Z,73.42
2023-05-09T05:31:34.512Z,75.51
2023-05-09T05:32:33.493Z,72.79
2023-05-09T05:33:33.453Z,72.30
2023-05-09T05:35:07.110Z,75.31
2023-05-09T05:35:33.467Z,74.78
2023-05-09T05:36:33.482Z,75.40
2023-05-09T05:37:33.590Z,73.76
2023-05-09T05:38:33.428Z,75.08
2023-05-09T05:39:33.509Z,74.79
2023-05-09T05:40:33.424Z,74.77
2023-05-09T05:41:33.520Z,73.41
2023-05-09T05:42:33.409Z,73.86
2023-05-09T05:43:33.397Z,71.92
2023-05-09T05:44:33.365Z,74.40
2023-05-09T05:45:33.993Z,75.34
2023-05-09T05:46:33.372Z,74.28
2023-05-09T05:47:33.423Z,72.65
2023-05-09T05:48:33.383Z,72.80
2023-05-09T05:49:33.371Z,72.93
2023-05-09T05:50:33.337Z,71.19
2023-05-09T05:51:33.344Z,73.83
2023-05-09T05:52:33.316Z,73.96
2023-05-09T05:53:33.594Z,73.06
2023-05-09T05:54:33.358Z,75.66
2023-05-09T05:55:33.391Z,73.05
2023-05-09T05:56:33.286Z,76.43
2023-05-09T05:57:33.305Z,73.60
2023-05-09T05:58:33.282Z,71.42
2023-05-09T05:59:33.294Z,75.34
2023-05-09T06:00:33.289Z,73.05
2023-05-09T06:01:33.266Z,73.57
2023-05-09T06:02:33.535Z,74.36
2023-05-09T06:03:33.404Z,74.29
2023-05-09T06:04:33.261Z,72.09
2023-05-09T06:05:33.270Z,72.25
2023-05-09T06:06:33.238Z,73.13
2023-05-09T06:07:33.327Z,70.89
2023-05-09T06:09:05.715Z,69.89
2023-05-09T06:09:33.239Z,70.75
2023-05-09T06:10:33.226Z,74.40
2023-05-09T06:11:33.303Z,73.63
2023-05-09T06:12:33.258Z,75.55
2023-05-09T06:13:33.206Z,74.32
2023-05-09T06:14:33.203Z,75.10
2023-05-09T06:15:33.178Z,74.32
2023-05-09T06:16:33.221Z,76.83
2023-05-09T06:17:33.186Z,76.34
2023-05-09T06:18:33.171Z,71.39
2023-05-09T06:19:33.206Z,73.61
2023-05-09T06:20:33.168Z,74.27
2023-05-09T06:21:33.136Z,72.57
2023-05-09T06:22:33.149Z,74.35
2023-05-09T06:23:33.214Z,72.95
2023-05-09T06:24:36.283Z,74.36
2023-05-09T06:25:34.141Z,73.86
2023-05-09T06:26:33.153Z,72.55
2023-05-09T06:27:33.199Z,72.91
2023-05-09T06:28:33.146Z,71.22
2023-05-09T06:29:33.167Z,73.26
2023-05-09T06:30:33.108Z,73.81
2023-05-09T06:31:33.134Z,73.20
2023-05-09T06:32:33.115Z,71.82
2023-05-09T06:33:33.076Z,73.04
2023-05-09T06:34:33.092Z,74.75
2023-05-09T06:35:33.095Z,73.86
2023-05-09T06:36:33.042Z,74.81
2023-05-09T06:37:33.018Z,72.94
2023-05-09T06:38:33.038Z,74.22
2023-05-09T06:39:33.037Z,73.12
2023-05-09T06:40:33.049Z,74.14
2023-05-09T06:41:33.039Z,73.89
2023-05-09T06:42:33.032Z,75.18
2023-05-09T06:43:33.128Z,70.77
2023-05-09T06:44:32.988Z,73.63
2023-05-09T06:45:33.146Z,73.44
2023-05-09T06:46:33.013Z,70.07
2023-05-09T06:47:33.055Z,75.39
2023-05-09T06:48:32.977Z,74.87
2023-05-09T06:49:32.952Z,70.27
2023-05-09T06:50:33.158Z,70.22
2023-05-09T06:51:32.953Z,72.98
2023-05-09T06:52:32.923Z,75.99
2023-05-09T06:53:32.968Z,74.16
2023-05-09T06:54:32.957Z,73.69
2023-05-09T06:55:32.907Z,71.92
2023-05-09T06:56:32.970Z,70.29
2023-05-09T06:57:32.983Z,72.23
2023-05-09T06:58:32.937Z,72.18
2023-05-09T06:59:33.003Z,69.99
2023-05-09T07:00:32.882Z,70.91
2023-05-09T07:01:32.880Z,69.12
2023-05-09T07:02:32.959Z,69.22
2023-05-09T07:03:32.906Z,74.18
2023-05-09T07:04:32.931Z,72.05
2023-05-09T07:05:32.973Z,71.61
2023-05-09T07:06:32.861Z,71.16
2023-05-09T07:07:32.857Z,72.57
2023-05-09T07:08:32.836Z,71.25
2023-05-09T07:09:32.830Z,71.96
2023-05-09T07:10:32.823Z,69.06
2023-05-09T07:11:32.849Z,75.62
2023-05-09T07:12:32.879Z,70.77
2023-05-09T07:13:32.790Z,69.53
2023-05-09T07:14:32.884Z,72.50
2023-05-09T07:15:41.125Z,67.86
2023-05-09T07:16:37.439Z,74.68
2023-05-09T07:17:32.859Z,71.30
2023-05-09T07:18:32.794Z,74.27
2023-05-09T07:19:32.808Z,74.57
2023-05-09T07:20:32.745Z,72.75
2023-05-09T07:21:32.742Z,70.66
2023-05-09T07:22:33.620Z,71.68
2023-05-09T07:23:32.745Z,71.12
2023-05-09T07:24:32.726Z,68.55
2023-05-09T07:25:32.729Z,69.28
2023-05-09T07:26:32.735Z,72.56
2023-05-09T07:27:32.744Z,72.66
2023-05-09T07:28:32.696Z,70.59
2023-05-09T07:29:33.718Z,71.97
2023-05-09T07:30:32.760Z,70.81
2023-05-09T07:31:34.038Z,68.09
2023-05-09T07:32:32.679Z,69.35
2023-05-09T07:33:32.686Z,68.90
2023-05-09T07:34:32.673Z,73.01
2023-05-09T07:35:32.679Z,71.15
2023-05-09T07:36:34.827Z,70.35
2023-05-09T07:37:32.663Z,69.36
2023-05-09T07:38:32.688Z,69.67
2023-05-09T07:39:32.633Z,70.57
2023-05-09T07:40:32.633Z,69.91
2023-05-09T07:41:32.619Z,71.78
2023-05-09T07:42:32.608Z,71.63
2023-05-09T07:43:32.626Z,70.44
2023-05-09T07:44:32.588Z,69.30
2023-05-09T07:45:32.639Z,69.06
2023-05-09T07:46:32.663Z,68.95
2023-05-09T07:47:32.688Z,71.76
2023-05-09T07:48:32.764Z,71.69
2023-05-09T07:49:32.665Z,72.02
2023-05-09T07:50:32.718Z,74.70
2023-05-09T07:51:32.577Z,71.28
2023-05-09T07:52:32.582Z,72.80
2023-05-09T07:53:32.689Z,70.52
2023-05-09T07:54:32.601Z,69.55
2023-05-09T07:55:32.555Z,70.13
2023-05-09T07:56:32.604Z,70.55
2023-05-09T07:57:32.534Z,68.19
2023-05-09T07:58:32.524Z,69.75
2023-05-09T07:59:32.556Z,70.69
2023-05-09T08:00:32.488Z,72.99
2023-05-09T08:01:32.576Z,69.62
2023-05-09T08:02:32.589Z,70.63
2023-05-09T08:03:32.855Z,70.03
2023-05-09T08:04:32.530Z,69.66
2023-05-09T08:05:32.534Z,68.48
2023-05-09T08:06:32.505Z,71.00
2023-05-09T08:07:32.513Z,69.48
2023-05-09T08:08:32.484Z,68.99
2023-05-09T08:09:32.444Z,72.14
2023-05-09T08:10:32.519Z,72.96
2023-05-09T08:11:32.451Z,69.79
2023-05-09T08:12:32.423Z,69.99
2023-05-09T08:13:32.459Z,72.26
2023-05-09T08:14:32.435Z,69.52
2023-05-09T08:15:32.436Z,71.91
2023-05-09T08:16:32.605Z,67.95
2023-05-09T08:17:32.449Z,73.61
2023-05-09T08:18:32.499Z,71.80
2023-05-09T08:19:32.460Z,72.32
2023-05-09T08:20:32.388Z,72.68
2023-05-09T08:21:32.409Z,70.02
2023-05-09T08:22:32.390Z,72.04
2023-05-09T08:23:32.439Z,73.08
2023-05-09T08:24:32.384Z,71.36
2023-05-09T08:25:32.371Z,72.90
2023-05-09T08:26:32.339Z,72.00
2023-05-09T08:27:32.310Z,72.63
2023-05-09T08:28:33.381Z,66.27
2023-05-09T08:29:32.332Z,71.32
2023-05-09T08:30:32.287Z,72.27
2023-05-09T08:31:32.343Z,72.43
2023-05-09T08:32:32.290Z,73.78
2023-05-09T08:33:32.305Z,73.98
2023-05-09T08:34:32.319Z,74.93
2023-05-09T08:35:32.419Z,70.50
2023-05-09T08:36:32.388Z,69.85
2023-05-09T08:37:32.253Z,69.90
2023-05-09T08:38:32.305Z,68.00
2023-05-09T08:39:32.251Z,71.69
2023-05-09T08:40:32.228Z,70.70
2023-05-09T08:41:32.243Z,71.86
2023-05-09T08:42:32.233Z,69.18
2023-05-09T08:43:32.291Z,72.97
2023-05-09T08:44:32.259Z,74.26
2023-05-09T08:45:32.186Z,71.15
2023-05-09T08:46:32.326Z,75.39
2023-05-09T08:47:32.238Z,70.97
2023-05-09T08:48:34.071Z,72.32
2023-05-09T08:49:32.178Z,72.19
2023-05-09T08:50:32.184Z,73.44
2023-05-09T08:51:32.306Z,69.90
2023-05-09T08:52:32.237Z,72.80
2023-05-09T08:53:32.208Z,70.76
2023-05-09T08:54:32.149Z,71.14
2023-05-09T08:55:32.178Z,70.36
2023-05-09T08:56:32.229Z,73.68
2023-05-09T08:57:32.206Z,72.05
2023-05-09T08:58:32.193Z,70.88
2023-05-09T08:59:32.208Z,72.09
2023-05-09T09:00:32.179Z,71.32
2023-05-09T09:01:32.187Z,74.21
2023-05-09T09:02:32.129Z,72.23
2023-05-09T09:03:32.097Z,71.82
2023-05-09T09:04:32.140Z,68.23
2023-05-09T09:05:41.423Z,70.83
2023-05-09T09:06:34.288Z,66.93
2023-05-09T09:07:32.069Z,70.81
2023-05-09T09:08:32.030Z,66.36
2023-05-09T09:09:32.080Z,69.32
2023-05-09T09:10:32.015Z,71.64
2023-05-09T09:11:32.228Z,75.08
2023-05-09T09:12:32.019Z,73.01
2023-05-09T09:13:32.086Z,70.17
2023-05-09T09:14:32.006Z,71.03
2023-05-09T09:15:32.106Z,71.26
2023-05-09T09:16:32.036Z,70.63
2023-05-09T09:17:32.041Z,74.72
2023-05-09T09:18:31.985Z,72.58
2023-05-09T09:19:31.970Z,70.47
2023-05-09T09:20:32.993Z,70.44
2023-05-09T09:21:31.969Z,69.64
2023-05-09T09:22:31.956Z,72.92
2023-05-09T09:23:31.978Z,65.30
2023-05-09T09:24:31.928Z,72.49
2023-05-09T09:25:31.938Z,69.85
2023-05-09T09:26:31.954Z,70.61
2023-05-09T09:27:31.955Z,71.07
2023-05-09T09:28:31.920Z,71.27
2023-05-09T09:29:31.942Z,68.50
2023-05-09T09:30:31.906Z,68.04
2023-05-09T09:31:31.936Z,70.47
2023-05-09T09:32:31.923Z,69.49
2023-05-09T09:33:31.877Z,71.62
2023-05-09T09:34:31.918Z,70.64
2023-05-09T09:35:31.859Z,69.90
2023-05-09T09:36:31.864Z,67.78
2023-05-09T09:37:31.896Z,72.77
2023-05-09T09:38:31.950Z,70.42
2023-05-09T09:39:31.845Z,72.96
2023-05-09T09:40:31.910Z,69.82
2023-05-09T09:41:31.833Z,72.70
2023-05-09T09:42:31.840Z,72.37
2023-05-09T09:43:31.844Z,69.42
2023-05-09T09:44:31.864Z,70.06
2023-05-09T09:45:31.818Z,69.94
2023-05-09T09:46:31.848Z,69.12
2023-05-09T09:47:31.854Z,70.36
2023-05-09T09:48:31.797Z,69.57
2023-05-09T09:49:31.880Z,71.08
2023-05-09T09:50:31.771Z,73.28
2023-05-09T09:51:31.781Z,64.27
2023-05-09T09:52:31.809Z,69.50
2023-05-09T09:53:31.802Z,70.11
2023-05-09T09:54:31.809Z,70.01
2023-05-09T09:55:31.781Z,69.80
2023-05-09T09:56:31.779Z,68.80
2023-05-09T09:57:31.748Z,72.80
2023-05-09T09:58:31.759Z,72.45
2023-05-09T09:59:31.779Z,72.50
2023-05-09T10:00:31.752Z,71.21
2023-05-09T10:01:31.780Z,69.93
2023-05-09T10:02:31.814Z,67.50
2023-05-09T10:03:32.778Z,69.78
2023-05-09T10:04:31.780Z,70.95
2023-05-09T10:05:31.842Z,71.62
2023-05-09T10:06:31.732Z,66.63
2023-05-09T10:07:31.798Z,70.64
2023-05-09T10:08:32.690Z,70.47
2023-05-09T10:09:31.680Z,71.98
2023-05-09T10:10:31.825Z,72.98
2023-05-09T10:11:31.743Z,73.10
2023-05-09T10:12:31.687Z,69.89
2023-05-09T10:13:31.704Z,68.23
2023-05-09T10:14:34.273Z,71.92
2023-05-09T10:15:38.480Z,72.75
2023-05-09T10:16:43.871Z,71.24
2023-05-09T10:17:33.811Z,72.68
2023-05-09T10:18:31.993Z,73.98
2023-05-09T10:19:31.653Z,71.45
2023-05-09T10:20:31.672Z,71.64
2023-05-09T10:21:31.671Z,67.67
2023-05-09T10:22:31.654Z,72.39
2023-05-09T10:23:31.621Z,69.72
2023-05-09T10:24:31.667Z,71.16
2023-05-09T10:25:31.599Z,70.24
2023-05-09T10:26:31.790Z,66.80
2023-05-09T10:27:31.734Z,72.28
2023-05-09T10:28:31.581Z,75.85
2023-05-09T10:29:31.800Z,73.06
2023-05-09T10:30:33.916Z,70.20
2023-05-09T10:31:31.609Z,68.37
2023-05-09T10:32:31.606Z,71.92
2023-05-09T10:33:31.569Z,71.17
2023-05-09T10:34:31.583Z,70.85
2023-05-09T10:35:31.633Z,67.78
2023-05-09T10:36:31.588Z,70.06
2023-05-09T10:37:31.661Z,67.43
2023-05-09T10:38:31.585Z,68.77
2023-05-09T10:39:31.560Z,69.89
2023-05-09T10:40:31.561Z,72.35
2023-05-09T10:41:31.560Z,70.10
2023-05-09T10:42:31.715Z,70.95
2023-05-09T10:43:32.172Z,75.78
2023-05-09T10:44:32.535Z,69.51
2023-05-09T10:45:31.520Z,71.87
2023-05-09T10:46:31.548Z,72.19
2023-05-09T10:47:31.575Z,69.74
2023-05-09T10:48:31.472Z,70.93
2023-05-09T10:49:31.512Z,70.41
2023-05-09T10:50:31.476Z,71.22
2023-05-09T10:52:04.977Z,66.23
2023-05-09T10:53:06.179Z,70.25
2023-05-09T10:53:31.510Z,71.52
2023-05-09T10:58:11.134Z,71.89
2023-05-09T10:59:12.040Z,68.02
2023-05-09T11:00:11.023Z,74.72
2023-05-09T11:01:12.006Z,76.27
2023-05-09T11:02:11.007Z,72.52
2023-05-09T11:02:38.677Z,72.57
2023-05-09T11:03:38.626Z,71.31
2023-05-09T11:04:38.596Z,70.85
2023-05-09T11:05:38.548Z,73.60
2023-05-09T11:06:39.504Z,74.93
2023-05-09T11:07:38.594Z,71.21
2023-05-09T11:08:38.512Z,71.91
2023-05-09T11:09:38.596Z,74.30
2023-05-09T11:10:38.600Z,73.34
2023-05-09T11:11:38.524Z,71.86
2023-05-09T11:12:38.533Z,68.95
2023-05-09T11:13:38.580Z,68.62
2023-05-09T11:14:38.510Z,72.10
2023-05-09T11:15:38.478Z,72.46
2023-05-09T11:16:38.536Z,71.45
2023-05-09T11:17:38.578Z,71.81
2023-05-09T11:18:38.472Z,73.97
2023-05-09T11:19:38.440Z,75.00
2023-05-09T11:20:38.479Z,72.62
2023-05-09T11:21:38.447Z,71.68
2023-05-09T11:22:38.432Z,74.31
2023-05-09T11:23:38.439Z,74.57
2023-05-09T11:24:38.425Z,72.11
2023-05-09T11:25:38.413Z,72.40
2023-05-09T11:26:38.425Z,72.11
2023-05-09T11:27:38.389Z,73.42
2023-05-09T11:28:38.445Z,72.69
2023-05-09T11:29:38.480Z,71.79
2023-05-09T11:30:38.560Z,70.16
2023-05-09T11:31:38.412Z,72.55
2023-05-09T11:32:38.442Z,73.82
2023-05-09T11:33:38.389Z,73.88
2023-05-09T11:34:38.404Z,70.98
2023-05-09T11:35:38.373Z,74.14
2023-05-09T11:36:38.366Z,71.22
2023-05-09T11:37:38.345Z,74.18
2023-05-09T11:38:38.365Z,74.04
2023-05-09T11:39:38.340Z,73.41
2023-05-09T11:40:38.340Z,74.59
2023-05-09T11:41:38.354Z,73.52
2023-05-09T11:42:38.313Z,72.75
2023-05-09T11:43:38.306Z,73.55
2023-05-09T11:44:38.329Z,71.62
2023-05-09T11:45:38.433Z,72.62
2023-05-09T11:46:38.288Z,71.43
2023-05-09T11:47:38.328Z,74.90
2023-05-09T11:48:38.282Z,73.65
2023-05-09T11:49:38.282Z,74.39
2023-05-09T11:50:38.298Z,72.71
2023-05-09T11:51:38.272Z,77.16
2023-05-09T11:52:38.255Z,73.42
2023-05-09T11:53:38.264Z,74.85
2023-05-09T11:54:38.253Z,76.49
2023-05-09T11:55:38.275Z,73.91
2023-05-09T11:56:38.244Z,72.36
2023-05-09T11:57:38.264Z,72.77
2023-05-09T11:58:38.266Z,70.96
2023-05-09T11:59:38.220Z,73.11
2023-05-09T12:00:38.300Z,73.85
2023-05-09T12:01:38.394Z,71.10
2023-05-09T12:02:38.266Z,71.27
2023-05-09T12:03:38.313Z,77.40
2023-05-09T12:04:38.269Z,73.12
2023-05-09T12:05:38.178Z,71.26
2023-05-09T12:06:38.187Z,70.66
2023-05-09T12:07:38.189Z,68.34
2023-05-09T12:08:38.217Z,73.23
2023-05-09T12:09:38.183Z,73.71
2023-05-09T12:10:38.150Z,73.29
2023-05-09T12:11:38.222Z,71.08
2023-05-09T12:12:38.405Z,72.18
2023-05-09T12:13:38.337Z,71.12
2023-05-09T12:14:38.132Z,73.38
2023-05-09T12:15:38.828Z,71.67
2023-05-09T12:16:38.232Z,71.39
2023-05-09T12:17:38.294Z,72.80
2023-05-09T12:18:38.136Z,72.54
2023-05-09T12:19:38.099Z,69.56
2023-05-09T12:20:38.092Z,72.19
2023-05-09T12:21:38.083Z,74.40
2023-05-09T12:22:38.107Z,70.88
2023-05-09T12:23:38.104Z,73.54
2023-05-09T12:24:38.105Z,70.00
2023-05-09T12:25:38.077Z,77.12
2023-05-09T12:26:38.073Z,73.26
2023-05-09T12:27:38.042Z,72.80
2023-05-09T12:28:38.067Z,73.79
2023-05-09T12:29:38.046Z,73.14
2023-05-09T12:30:38.016Z,73.36
2023-05-09T12:31:38.110Z,75.17
2023-05-09T12:32:38.080Z,75.91
2023-05-09T12:33:38.136Z,74.38
2023-05-09T12:34:38.008Z,74.62
2023-05-09T12:35:38.029Z,71.79
2023-05-09T12:36:38.016Z,72.84
2023-05-09T12:37:37.973Z,72.74
2023-05-09T12:38:38.011Z,73.33
2023-05-09T12:39:37.977Z,72.65
2023-05-09T12:40:37.997Z,72.42
2023-05-09T12:41:44.066Z,69.48
2023-05-09T12:42:39.962Z,73.63
2023-05-09T12:43:37.957Z,73.77
2023-05-09T12:44:37.939Z,73.45
2023-05-09T12:45:38.016Z,73.09
2023-05-09T12:46:38.003Z,72.99
2023-05-09T12:47:37.989Z,71.00
2023-05-09T12:48:37.950Z,71.46
2023-05-09T12:49:38.020Z,71.01
2023-05-09T12:50:37.913Z,73.50
2023-05-09T12:51:37.899Z,72.45
2023-05-09T12:52:41.716Z,71.70
2023-05-09T12:53:39.888Z,73.39
2023-05-09T12:54:37.904Z,69.75
2023-05-09T12:55:37.958Z,73.50